PWSweather.com
Personal Weather Stations
Station Observations
KCOGRAND2
Redlands, Southcamp Road & Dakota Circle, Grand Junction, CO 81507

Redlands, Southcamp Road & Dakota CircleGrand Junction, CO 81507

Lat: 39.055, Lon: -108.637

Elevation: 4870

Station Type: RadioShack WX200

Latest ConditionsUpdated 7:45:20 AM MDT Monday, Jul 6, 2015
Currently Today's Max Today's Min Today's Average
Temperature 68.2°F20.1°C 68.2°F20.1°C 61.7°F16.5°C 65.2°F18.4°C
Dew Point 51.8°F11.0°C 60.4°F15.8°C 51.8°F11.0°C 57.7°F14.3°C
Winds 5.0 mph 8.0 kmh 6.0 mph NNE9.7 kmh NNE - 2.1 mph 3.4 kmh
Wind Gusts 7.8 mph12.6 kmh 9.2 mph14.8 kmh - -
Humidity 56% 86% 56% 77%
Pressure 25.16 in852.0 mb 25.16 in852.0 mb 25.13 in851.0 mb -
Hour Temp Dew Point Humidity Winds Wind Gusts Pressure Precip Precip Rate Daily Precip Total
07:45 AM 68.2°F20.1°C 51.8°F11.0°C 56% 5.0 mph 8.0 kmh 7.8 mph12.6 kmh 25.16 in852.0 mb 0.00 in0.0 mm 0.00 in0.0 mm 0.00 in0.0 mm
07:40 AM 68.2°F20.1°C 52.9°F11.6°C 58% 5.0 mph N8.0 kmh N 6.9 mph11.1 kmh 25.16 in852.0 mb 0.00 in0.0 mm 0.00 in0.0 mm 0.00 in0.0 mm
07:35 AM 67.3°F19.6°C 53.4°F11.9°C 61% 5.0 mph N8.0 kmh N 7.8 mph12.6 kmh 25.16 in852.0 mb 0.00 in0.0 mm 0.00 in0.0 mm 0.00 in0.0 mm
07:30 AM 66.9°F19.4°C 53.4°F11.9°C 62% 5.0 mph N8.0 kmh N 9.2 mph14.8 kmh 25.16 in852.0 mb 0.00 in0.0 mm 0.00 in0.0 mm 0.00 in0.0 mm
07:25 AM 66.9°F19.4°C 53.4°F11.9°C 62% 5.0 mph NNE8.0 kmh NNE 7.4 mph11.9 kmh 25.16 in852.0 mb 0.00 in0.0 mm 0.00 in0.0 mm 0.00 in0.0 mm
07:20 AM 67.1°F19.5°C 53.6°F12.0°C 62% 5.0 mph NNE8.0 kmh NNE 8.7 mph14.0 kmh 25.16 in852.0 mb 0.00 in0.0 mm 0.00 in0.0 mm 0.00 in0.0 mm
07:15 AM 66.7°F19.3°C 54.1°F12.3°C 64% 5.0 mph NNE8.0 kmh NNE 6.9 mph11.1 kmh 25.16 in852.0 mb 0.00 in0.0 mm 0.00 in0.0 mm 0.00 in0.0 mm
07:10 AM 66.6°F19.2°C 54.0°F12.2°C 64% 5.0 mph NNE8.0 kmh NNE 7.4 mph11.9 kmh 25.16 in852.0 mb 0.00 in0.0 mm 0.00 in0.0 mm 0.00 in0.0 mm
07:05 AM 66.4°F19.1°C 54.3°F12.4°C 65% 6.0 mph NNE9.7 kmh NNE 8.3 mph13.4 kmh 25.16 in852.0 mb 0.00 in0.0 mm 0.00 in0.0 mm 0.00 in0.0 mm
07:00 AM 66.4°F19.1°C 54.3°F12.4°C 65% 6.0 mph NNE9.7 kmh NNE 9.2 mph14.8 kmh 25.16 in852.0 mb 0.00 in0.0 mm 0.00 in0.0 mm 0.00 in0.0 mm
06:55 AM 66.0°F18.9°C 54.3°F12.4°C 66% 5.0 mph NNE8.0 kmh NNE 8.7 mph14.0 kmh 25.16 in852.0 mb 0.00 in0.0 mm 0.00 in0.0 mm 0.00 in0.0 mm
06:50 AM 65.8°F18.8°C 55.0°F12.8°C 68% 5.0 mph NNE8.0 kmh NNE 7.4 mph11.9 kmh 25.16 in852.0 mb 0.00 in0.0 mm 0.00 in0.0 mm 0.00 in0.0 mm
06:45 AM 65.7°F18.7°C 55.2°F12.9°C 69% 5.0 mph NNE8.0 kmh NNE 8.3 mph13.4 kmh 25.16 in852.0 mb 0.00 in0.0 mm 0.00 in0.0 mm 0.00 in0.0 mm
06:40 AM 65.1°F18.4°C 56.3°F13.5°C 73% 5.0 mph NNE8.0 kmh NNE 7.8 mph12.6 kmh 25.16 in852.0 mb 0.00 in0.0 mm 0.00 in0.0 mm 0.00 in0.0 mm
06:35 AM 64.4°F18.0°C 56.7°F13.7°C 76% 4.0 mph NNE6.4 kmh NNE 7.4 mph11.9 kmh 25.16 in852.0 mb 0.00 in0.0 mm 0.00 in0.0 mm 0.00 in0.0 mm
06:30 AM 63.9°F17.7°C 56.8°F13.8°C 78% 4.0 mph NNE6.4 kmh NNE 8.3 mph13.4 kmh 25.16 in852.0 mb 0.00 in0.0 mm 0.00 in0.0 mm 0.00 in0.0 mm
06:25 AM 64.6°F18.1°C 59.0°F15.0°C 82% 3.0 mph N4.8 kmh N 8.3 mph13.4 kmh 25.16 in852.0 mb 0.00 in0.0 mm 0.00 in0.0 mm 0.00 in0.0 mm
06:20 AM 63.1°F17.3°C 58.3°F14.6°C 84% 3.0 mph N4.8 kmh N 6.9 mph11.1 kmh 25.16 in852.0 mb 0.00 in0.0 mm 0.00 in0.0 mm 0.00 in0.0 mm
06:15 AM 63.0°F17.2°C 58.6°F14.8°C 86% 2.0 mph N3.2 kmh N 6.7 mph10.8 kmh 25.16 in852.0 mb 0.00 in0.0 mm 0.00 in0.0 mm 0.00 in0.0 mm
06:10 AM 61.7°F16.5°C 57.4°F14.1°C 86% 1.0 mph NNE1.6 kmh NNE 3.6 mph5.8 kmh 25.16 in852.0 mb 0.00 in0.0 mm 0.00 in0.0 mm 0.00 in0.0 mm
06:05 AM 61.9°F16.6°C 57.6°F14.2°C 86% 3.0 mph NNE4.8 kmh NNE 4.0 mph6.4 kmh 25.13 in851.0 mb 0.00 in0.0 mm 0.00 in0.0 mm 0.00 in0.0 mm
06:00 AM 62.1°F16.7°C 57.7°F14.3°C 86% 2.0 mph NNE3.2 kmh NNE 4.5 mph7.2 kmh 25.13 in851.0 mb 0.00 in0.0 mm 0.00 in0.0 mm 0.00 in0.0 mm
05:55 AM 61.9°F16.6°C 57.4°F14.1°C 85% 2.0 mph NNE3.2 kmh NNE 4.0 mph6.4 kmh 25.13 in851.0 mb 0.00 in0.0 mm 0.00 in0.0 mm 0.00 in0.0 mm
05:50 AM 62.1°F16.7°C 57.6°F14.2°C 85% 1.0 mph NNE1.6 kmh NNE 3.6 mph5.8 kmh 25.13 in851.0 mb 0.00 in0.0 mm 0.00 in0.0 mm 0.00 in0.0 mm
05:45 AM 62.1°F16.7°C 57.6°F14.2°C 85% 1.0 mph NNE1.6 kmh NNE 3.1 mph5.0 kmh 25.13 in851.0 mb 0.00 in0.0 mm 0.00 in0.0 mm 0.00 in0.0 mm
05:40 AM 62.6°F17.0°C 58.1°F14.5°C 85% 3.0 mph NNE4.8 kmh NNE 4.9 mph7.9 kmh 25.13 in851.0 mb 0.00 in0.0 mm 0.00 in0.0 mm 0.00 in0.0 mm
05:35 AM 62.6°F17.0°C 57.4°F14.1°C 83% 3.0 mph NNE4.8 kmh NNE 5.4 mph8.7 kmh 25.13 in851.0 mb 0.00 in0.0 mm 0.00 in0.0 mm 0.00 in0.0 mm
05:30 AM 62.8°F17.1°C 57.6°F14.2°C 83% 2.0 mph E3.2 kmh E 4.5 mph7.2 kmh 25.13 in851.0 mb 0.00 in0.0 mm 0.00 in0.0 mm 0.00 in0.0 mm
05:25 AM 63.3°F17.4°C 57.7°F14.3°C 82% 2.0 mph SE3.2 kmh SE 3.6 mph5.8 kmh 25.13 in851.0 mb 0.00 in0.0 mm 0.00 in0.0 mm 0.00 in0.0 mm
05:20 AM 63.5°F17.5°C 57.9°F14.4°C 82% 3.0 mph SE4.8 kmh SE 4.5 mph7.2 kmh 25.13 in851.0 mb 0.00 in0.0 mm 0.00 in0.0 mm 0.00 in0.0 mm
05:15 AM 63.7°F17.6°C 57.7°F14.3°C 81% 3.0 mph SE4.8 kmh SE 4.5 mph7.2 kmh 25.13 in851.0 mb 0.00 in0.0 mm 0.00 in0.0 mm 0.00 in0.0 mm
05:10 AM 63.7°F17.6°C 57.4°F14.1°C 80% 3.0 mph NE4.8 kmh NE 4.9 mph7.9 kmh 25.13 in851.0 mb 0.00 in0.0 mm 0.00 in0.0 mm 0.00 in0.0 mm
05:05 AM 64.0°F17.8°C 57.4°F14.1°C 79% 3.0 mph NNW4.8 kmh NNW 6.7 mph10.8 kmh 25.13 in851.0 mb 0.00 in0.0 mm 0.00 in0.0 mm 0.00 in0.0 mm
05:00 AM 64.6°F18.1°C 57.2°F14.0°C 77% 3.0 mph NNW4.8 kmh NNW 5.8 mph9.3 kmh 25.13 in851.0 mb 0.00 in0.0 mm 0.00 in0.0 mm 0.00 in0.0 mm
04:55 AM 64.8°F18.2°C 56.7°F13.7°C 75% 3.0 mph NNW4.8 kmh NNW 5.8 mph9.3 kmh 25.13 in851.0 mb 0.00 in0.0 mm 0.00 in0.0 mm 0.00 in0.0 mm
04:50 AM 65.1°F18.4°C 57.0°F13.9°C 75% 3.0 mph NW4.8 kmh NW 4.5 mph7.2 kmh 25.13 in851.0 mb 0.00 in0.0 mm 0.00 in0.0 mm 0.00 in0.0 mm
04:45 AM 65.5°F18.6°C 57.0°F13.9°C 74% 3.0 mph NNW4.8 kmh NNW 5.4 mph8.7 kmh 25.13 in851.0 mb 0.00 in0.0 mm 0.00 in0.0 mm 0.00 in0.0 mm
04:40 AM 65.5°F18.6°C 57.4°F14.1°C 75% 3.0 mph N4.8 kmh N 6.7 mph10.8 kmh 25.13 in851.0 mb 0.00 in0.0 mm 0.00 in0.0 mm 0.00 in0.0 mm
04:35 AM 65.1°F18.4°C 57.7°F14.3°C 77% 2.0 mph N3.2 kmh N 4.0 mph6.4 kmh 25.13 in851.0 mb 0.00 in0.0 mm 0.00 in0.0 mm 0.00 in0.0 mm
04:30 AM 64.4°F18.0°C 57.0°F13.9°C 77% 3.0 mph N4.8 kmh N 4.5 mph7.2 kmh 25.13 in851.0 mb 0.00 in0.0 mm 0.00 in0.0 mm 0.00 in0.0 mm
04:25 AM 64.4°F18.0°C 57.4°F14.1°C 78% 3.0 mph N4.8 kmh N 4.9 mph7.9 kmh 25.13 in851.0 mb 0.00 in0.0 mm 0.00 in0.0 mm 0.00 in0.0 mm
04:20 AM 64.2°F17.9°C 57.6°F14.2°C 79% 2.0 mph NW3.2 kmh NW 4.9 mph7.9 kmh 25.13 in851.0 mb 0.00 in0.0 mm 0.00 in0.0 mm 0.00 in0.0 mm
04:15 AM 64.0°F17.8°C 58.1°F14.5°C 81% 1.0 mph W1.6 kmh W 4.0 mph6.4 kmh 25.13 in851.0 mb 0.00 in0.0 mm 0.00 in0.0 mm 0.00 in0.0 mm
04:10 AM 63.5°F17.5°C 57.6°F14.2°C 81% Calm Calm -- 25.13 in851.0 mb 0.00 in0.0 mm 0.00 in0.0 mm 0.00 in0.0 mm
04:05 AM 63.7°F17.6°C 57.4°F14.1°C 80% Calm Calm 2.7 mph4.3 kmh 25.13 in851.0 mb 0.00 in0.0 mm 0.00 in0.0 mm 0.00 in0.0 mm
03:59 AM 63.5°F17.5°C 56.8°F13.8°C 79% Calm Calm -- 25.13 in851.0 mb 0.00 in0.0 mm 0.00 in0.0 mm 0.00 in0.0 mm
03:54 AM 63.9°F17.7°C 56.8°F13.8°C 78% Calm Calm 2.7 mph4.3 kmh 25.13 in851.0 mb 0.00 in0.0 mm 0.00 in0.0 mm 0.00 in0.0 mm
03:49 AM 64.4°F18.0°C 57.0°F13.9°C 77% 1.0 mph W1.6 kmh W 2.7 mph4.3 kmh 25.13 in851.0 mb 0.00 in0.0 mm 0.00 in0.0 mm 0.00 in0.0 mm
03:44 AM 64.8°F18.2°C 57.4°F14.1°C 77% 1.0 mph W1.6 kmh W 3.1 mph5.0 kmh 25.13 in851.0 mb 0.00 in0.0 mm 0.00 in0.0 mm 0.00 in0.0 mm
03:39 AM 65.3°F18.5°C 57.9°F14.4°C 77% 1.0 mph W1.6 kmh W 3.1 mph5.0 kmh 25.13 in851.0 mb 0.00 in0.0 mm 0.00 in0.0 mm 0.00 in0.0 mm
03:34 AM 65.7°F18.7°C 58.3°F14.6°C 77% 1.0 mph W1.6 kmh W 3.6 mph5.8 kmh 25.13 in851.0 mb 0.00 in0.0 mm 0.00 in0.0 mm 0.00 in0.0 mm
03:29 AM 65.7°F18.7°C 58.6°F14.8°C 78% 3.0 mph NW4.8 kmh NW 5.4 mph8.7 kmh 25.13 in851.0 mb 0.00 in0.0 mm 0.00 in0.0 mm 0.00 in0.0 mm
03:24 AM 65.7°F18.7°C 58.6°F14.8°C 78% 3.0 mph NNE4.8 kmh NNE 5.8 mph9.3 kmh 25.13 in851.0 mb 0.00 in0.0 mm 0.00 in0.0 mm 0.00 in0.0 mm
03:19 AM 65.5°F18.6°C 59.5°F15.3°C 81% 1.0 mph NNE1.6 kmh NNE 4.5 mph7.2 kmh 25.13 in851.0 mb 0.00 in0.0 mm 0.00 in0.0 mm 0.00 in0.0 mm
03:14 AM 64.6°F18.1°C 58.6°F14.8°C 81% Calm Calm 3.1 mph5.0 kmh 25.13 in851.0 mb 0.00 in0.0 mm 0.00 in0.0 mm 0.00 in0.0 mm
03:09 AM 64.8°F18.2°C 58.8°F14.9°C 81% Calm Calm -- 25.13 in851.0 mb 0.00 in0.0 mm 0.00 in0.0 mm 0.00 in0.0 mm
03:04 AM 64.9°F18.3°C 59.4°F15.2°C 82% Calm Calm 3.6 mph5.8 kmh 25.13 in851.0 mb 0.00 in0.0 mm 0.00 in0.0 mm 0.00 in0.0 mm
02:59 AM 64.6°F18.1°C 58.6°F14.8°C 81% Calm Calm 4.0 mph6.4 kmh 25.13 in851.0 mb 0.00 in0.0 mm 0.00 in0.0 mm 0.00 in0.0 mm
02:54 AM 64.8°F18.2°C 58.8°F14.9°C 81% Calm Calm 3.6 mph5.8 kmh 25.13 in851.0 mb 0.00 in0.0 mm 0.00 in0.0 mm 0.00 in0.0 mm
02:49 AM 65.1°F18.4°C 59.2°F15.1°C 81% Calm Calm 3.1 mph5.0 kmh 25.13 in851.0 mb 0.00 in0.0 mm 0.00 in0.0 mm 0.00 in0.0 mm
02:44 AM 65.1°F18.4°C 59.2°F15.1°C 81% 2.0 mph NNE3.2 kmh NNE 3.6 mph5.8 kmh 25.13 in851.0 mb 0.00 in0.0 mm 0.00 in0.0 mm 0.00 in0.0 mm
02:39 AM 65.1°F18.4°C 58.8°F14.9°C 80% 2.0 mph NNE3.2 kmh NNE 4.5 mph7.2 kmh 25.13 in851.0 mb 0.00 in0.0 mm 0.00 in0.0 mm 0.00 in0.0 mm
02:34 AM 65.1°F18.4°C 58.8°F14.9°C 80% Calm Calm 4.0 mph6.4 kmh 25.13 in851.0 mb 0.00 in0.0 mm 0.00 in0.0 mm 0.00 in0.0 mm
02:29 AM 64.9°F18.3°C 59.0°F15.0°C 81% Calm Calm 2.7 mph4.3 kmh 25.13 in851.0 mb 0.00 in0.0 mm 0.00 in0.0 mm 0.00 in0.0 mm
02:24 AM 64.8°F18.2°C 58.5°F14.7°C 80% Calm Calm 3.6 mph5.8 kmh 25.13 in851.0 mb 0.00 in0.0 mm 0.00 in0.0 mm 0.00 in0.0 mm
02:19 AM 64.9°F18.3°C 58.6°F14.8°C 80% Calm Calm 2.7 mph4.3 kmh 25.13 in851.0 mb 0.00 in0.0 mm 0.00 in0.0 mm 0.00 in0.0 mm
02:14 AM 64.9°F18.3°C 58.3°F14.6°C 79% Calm Calm -- 25.13 in851.0 mb 0.00 in0.0 mm 0.00 in0.0 mm 0.00 in0.0 mm
02:09 AM 65.3°F18.5°C 58.3°F14.6°C 78% 2.0 mph NNE3.2 kmh NNE 3.6 mph5.8 kmh 25.13 in851.0 mb 0.00 in0.0 mm 0.00 in0.0 mm 0.00 in0.0 mm
02:04 AM 65.7°F18.7°C 58.3°F14.6°C 77% 2.0 mph NNE3.2 kmh NNE 3.6 mph5.8 kmh 25.13 in851.0 mb 0.00 in0.0 mm 0.00 in0.0 mm 0.00 in0.0 mm
01:59 AM 65.8°F18.8°C 58.1°F14.5°C 76% 2.0 mph NNE3.2 kmh NNE 4.5 mph7.2 kmh 25.13 in851.0 mb 0.00 in0.0 mm 0.00 in0.0 mm 0.00 in0.0 mm
01:54 AM 66.2°F19.0°C 58.1°F14.5°C 75% 3.0 mph N4.8 kmh N 4.5 mph7.2 kmh 25.13 in851.0 mb 0.00 in0.0 mm 0.00 in0.0 mm 0.00 in0.0 mm
01:49 AM 66.4°F19.1°C 58.3°F14.6°C 75% 2.0 mph N3.2 kmh N 4.0 mph6.4 kmh 25.13 in851.0 mb 0.00 in0.0 mm 0.00 in0.0 mm 0.00 in0.0 mm
01:44 AM 66.4°F19.1°C 58.3°F14.6°C 75% 1.0 mph N1.6 kmh N 4.0 mph6.4 kmh 25.13 in851.0 mb 0.00 in0.0 mm 0.00 in0.0 mm 0.00 in0.0 mm
01:39 AM 66.6°F19.2°C 58.5°F14.7°C 75% 2.0 mph N3.2 kmh N 4.5 mph7.2 kmh 25.13 in851.0 mb 0.00 in0.0 mm 0.00 in0.0 mm 0.00 in0.0 mm
01:34 AM 66.6°F19.2°C 58.8°F14.9°C 76% 3.0 mph N4.8 kmh N 4.9 mph7.9 kmh 25.13 in851.0 mb 0.00 in0.0 mm 0.00 in0.0 mm 0.00 in0.0 mm
01:29 AM 66.6°F19.2°C 58.8°F14.9°C 76% 3.0 mph NNW4.8 kmh NNW 4.9 mph7.9 kmh 25.13 in851.0 mb 0.00 in0.0 mm 0.00 in0.0 mm 0.00 in0.0 mm
01:24 AM 66.6°F19.2°C 59.2°F15.1°C 77% 2.0 mph NW3.2 kmh NW 4.5 mph7.2 kmh 25.13 in851.0 mb 0.00 in0.0 mm 0.00 in0.0 mm 0.00 in0.0 mm
01:19 AM 66.4°F19.1°C 59.0°F15.0°C 77% 1.0 mph NW1.6 kmh NW 3.1 mph5.0 kmh 25.13 in851.0 mb 0.00 in0.0 mm 0.00 in0.0 mm 0.00 in0.0 mm
01:14 AM 66.6°F19.2°C 59.2°F15.1°C 77% Calm Calm 3.6 mph5.8 kmh 25.13 in851.0 mb 0.00 in0.0 mm 0.00 in0.0 mm 0.00 in0.0 mm
01:09 AM 66.7°F19.3°C 59.4°F15.2°C 77% Calm Calm -- 25.13 in851.0 mb 0.00 in0.0 mm 0.00 in0.0 mm 0.00 in0.0 mm
01:04 AM 66.7°F19.3°C 59.4°F15.2°C 77% Calm Calm 2.7 mph4.3 kmh 25.13 in851.0 mb 0.00 in0.0 mm 0.00 in0.0 mm 0.00 in0.0 mm
12:59 AM 66.7°F19.3°C 59.4°F15.2°C 77% Calm Calm 3.1 mph5.0 kmh 25.13 in851.0 mb 0.00 in0.0 mm 0.00 in0.0 mm 0.00 in0.0 mm
12:54 AM 66.7°F19.3°C 59.4°F15.2°C 77% Calm Calm 2.7 mph4.3 kmh 25.13 in851.0 mb 0.00 in0.0 mm 0.00 in0.0 mm 0.00 in0.0 mm
12:49 AM 66.9°F19.4°C 59.5°F15.3°C 77% Calm Calm 3.1 mph5.0 kmh 25.13 in851.0 mb 0.00 in0.0 mm 0.00 in0.0 mm 0.00 in0.0 mm
12:44 AM 66.9°F19.4°C 59.5°F15.3°C 77% Calm Calm -- 25.13 in851.0 mb 0.00 in0.0 mm 0.00 in0.0 mm 0.00 in0.0 mm
12:39 AM 66.9°F19.4°C 59.9°F15.5°C 78% Calm Calm -- 25.13 in851.0 mb 0.00 in0.0 mm 0.00 in0.0 mm 0.00 in0.0 mm
12:34 AM 66.9°F19.4°C 59.9°F15.5°C 78% 1.0 mph WNW1.6 kmh WNW 4.0 mph6.4 kmh 25.13 in851.0 mb 0.00 in0.0 mm 0.00 in0.0 mm 0.00 in0.0 mm
12:29 AM 66.9°F19.4°C 59.9°F15.5°C 78% Calm Calm 3.6 mph5.8 kmh 25.13 in851.0 mb 0.00 in0.0 mm 0.00 in0.0 mm 0.00 in0.0 mm
12:24 AM 66.9°F19.4°C 60.3°F15.7°C 79% 1.0 mph W1.6 kmh W 3.1 mph5.0 kmh 25.13 in851.0 mb 0.00 in0.0 mm 0.00 in0.0 mm 0.00 in0.0 mm
12:19 AM 66.9°F19.4°C 60.3°F15.7°C 79% 3.0 mph W4.8 kmh W 4.9 mph7.9 kmh 25.13 in851.0 mb 0.00 in0.0 mm 0.00 in0.0 mm 0.00 in0.0 mm
12:14 AM 66.9°F19.4°C 60.3°F15.7°C 79% 4.0 mph W6.4 kmh W 5.4 mph8.7 kmh 25.13 in851.0 mb 0.00 in0.0 mm 0.00 in0.0 mm 0.00 in0.0 mm
12:09 AM 67.1°F19.5°C 60.4°F15.8°C 79% 2.0 mph NW3.2 kmh NW 4.9 mph7.9 kmh 25.13 in851.0 mb 0.00 in0.0 mm 0.00 in0.0 mm 0.00 in0.0 mm
12:04 AM 66.9°F19.4°C 59.9°F15.5°C 78% Calm Calm 3.6 mph5.8 kmh 25.13 in851.0 mb 0.00 in0.0 mm 0.00 in0.0 mm 0.00 in0.0 mm